메인 페이지
METAR-TAF:

METAR-TAF

공항 :

포르투알레그리, 히우그란지두술, 브라질

위도: 30-00S, 경도: 051-11W, 고도: 3m

현재 날씨관측

예보는 16분 전, 20:00시(UTC)에 발표되었습니다.
서북서6kt서남서풍과 북서풍을 오가는
온도 24°C
습도 65%
기압 1008 hPa
시정 10km 이상
고도 3500ft 상공 구름 조금

METAR: SBPA 182000Z 29006KT 250V320 9999 FEW035 24/17 Q1008

시각: 17:16 (20:16 UTC)

예보

예보는 5 시간 16분 전, 15:00시(UTC)에 발표되었습니다.
예보 대상 시간: 18일 18시부터 19일 18시까지 (UTC)
서북서6kt
시정 10km 이상
고도 3000ft 상공 구름 많음
전환 중
18일 19시부터 18일 21시까지 (UTC)
시정 10km 이상
1500m 미만 상공 구름 및 적란운 없음
전환 중
19일 05시부터 19일 07시까지 (UTC)
북서5kt
시정: 8000m
고도 600ft 상공 구름 많음
확률 40%
19일 09시부터 19일 11시까지 (UTC)
kt
시정: 2000m
고도 200ft 상공 구름 많음
곳곳에 안개
전환 중
19일 11시부터 19일 13시까지 (UTC)
10kt
시정 10km 이상
1500m 미만 상공 구름 및 적란운 없음

TAF: SBPA 181500Z 1818/1918 29006KT 9999 BKN030 TN15/1908Z TX28/1918Z BECMG 1819/1821 CAVOK BECMG 1905/1907 31005KT 8000 BKN006 PROB40 1909/1911 00000KT 2000 BCFG BKN002 BECMG 1911/1913 28010KT CAVOK RMK PDJ

4,000개 이상의 공항 관측 자료 및 예보 (METAR 및 TAF 보고).

지도상에서 검색 가능한 기상관측소가 노란 점과 빨간 점으로 표시되어 있습니다.

기상관측소 명을 보려면 표시 위로 마우스를 이동하세요.

날씨 관측과 예보를 보려면 클릭하세요.

지도 변경 : 확대하려면 엑스 표시가 있는 녹색 버튼, 축소하려면 빼기 표시가 있는 녹색 버튼, 다음 페이지의 지도를 보려면 녹색 화살표를 클릭하세요.


METAR-TAF: